Aviation Digital Data Service (ADDS)

Output produced by METARs form (0636 UTC 27 March 2017)
found at http://www.aviationweather.gov/adds/metars/
 
MGGT 270500Z 2706/2806 36006KT 7000 BKN014 TX27/2720Z TN13/2712Z 
     PROB30 
     TEMPO 2708/2714 3000 BR SCT004 
     BECMG 2715/2717 18008KT FE020 
     BECMG 2720/2722 SCT020
       
MGMM 270500Z 2706/2806 00000KT CAVOK TX35/2720Z TN16/2712Z 
     BECMG 2716/2718 09010KT FEW020 
     TEMPO 2720/2724 SCT020 
     FM280200 00000KT CAVOK
       
MGPB 270500Z 2706/2806 00000KT CAVOK TX30/2720Z TN19/2712Z 
     BECMG 2715/2717 07008KT FEW020 
     TEMPO 2720/2724 SCT020 
     BECMG 2801/2803 00000KT FEW016
       
MGSJ 270500Z 2706/2806 00000KT 7000 SKC TX35/2720Z TN22/2712Z 
     TEMPO 2700/2704 FEW025CB 
     BECMG 2715/2717 18008KT 
     BECMG 2719/2721 FEW020TCU 
     BECMG 2801/2803 00000KT
       
MGGT 270500Z 2706/2806 36006KT 7000 BKN014 TX27/2720Z TN13/2712Z 
     PROB30 
     TEMPO 2708/2714 3000 BR SCT004 
     BECMG 2715/2717 18008KT FE020 
     BECMG 2720/2722 SCT020
       
MGPB 270500Z 2706/2806 00000KT CAVOK TX30/2720Z TN19/2712Z 
     BECMG 2715/2717 07008KT FEW020 
     TEMPO 2720/2724 SCT020 
     BECMG 2801/2803 00000KT FEW016
       
MGSJ 270500Z 2706/2806 00000KT 7000 SKC TX35/2720Z TN22/2712Z 
     TEMPO 2700/2704 FEW025CB 
     BECMG 2715/2717 18008KT 
     BECMG 2719/2721 FEW020TCU 
     BECMG 2801/2803 00000KT